^^
Saratoga-Weather Station Historical Data
Daily Summary for May 10, 2021 Units:  Both    English   Metric
Daily Weekly Monthly Yearly Custom
  High: Low: Average:
Temperature: 68.7 °F /  20.4 °C 58.5 °F /  14.7 °C 62.8 °F /  17.1 °C
Dew Point: 55 °F /  12.8 °C 50.7 °F /  10.4 °C 53.4 °F /  11.9 °C
Humidity: 87% 53% 72%
Wind Speed: 6.9mph /  11.1km/h - 1.6mph /  2.5km/h
Wind Gust: 15mph /  24.1km/h - -
Wind- - South
Pressure: 29.7 in /  1007.1 hPa 29.6 in /  1000.7 hPa -
Precipitation: 0.02 in /  0.5 mm    
Historical Graphs
 
 
Tabular Data for May 10, 2021
Time Temperature Dew Point Pressure Wind Wind Speed Wind Gust Humidity Rainfall Rate (Hourly) solar
00:04 64.6 °F /  18.1 °C 52.5 °F /  11.4 °C 29.6in /  1001.7hPa South 0.9mph /  1.4km/h 2mph /  3.2km/h 65% 0in /  0.0mm 0 W/m2
00:09 64.2 °F /  17.9 °C 52.2 °F /  11.2 °C 29.6in /  1002.0hPa ESE 0.9mph /  1.4km/h 3mph /  4.8km/h 65% 0in /  0.0mm 0 W/m2
00:14 64.2 °F /  17.9 °C 51.8 °F /  11 °C 29.6in /  1002.0hPa ENE 2.9mph /  4.7km/h 3mph /  4.8km/h 64% 0in /  0.0mm 0 W/m2
00:19 64.4 °F /  18 °C 52 °F /  11.1 °C 29.6in /  1002.0hPa ENE 0.9mph /  1.4km/h 1mph /  1.6km/h 64% 0in /  0.0mm 0 W/m2
00:24 64.6 °F /  18.1 °C 51.6 °F /  10.9 °C 29.6in /  1002.0hPa ENE 4.9mph /  7.9km/h 8mph /  12.9km/h 63% 0in /  0.0mm 0 W/m2
00:29 65.5 °F /  18.6 °C 50.7 °F /  10.4 °C 29.6in /  1002.0hPa North 0.9mph /  1.4km/h 9mph /  14.5km/h 59% 0in /  0.0mm 0 W/m2
00:34 66.9 °F /  19.4 °C 51.3 °F /  10.7 °C 29.6in /  1002.0hPa NE 2mph /  3.2km/h 4mph /  6.4km/h 57% 0in /  0.0mm 0 W/m2
00:39 67.6 °F /  19.8 °C 51.8 °F /  11 °C 29.6in /  1002.0hPa NE 0.9mph /  1.4km/h 5mph /  8km/h 57% 0in /  0.0mm 0 W/m2
00:44 67.8 °F /  19.9 °C 52.5 °F /  11.4 °C 29.6in /  1002.0hPa SE 0.9mph /  1.4km/h 4mph /  6.4km/h 58% 0in /  0.0mm 0 W/m2
00:49 67.6 °F /  19.8 °C 52.3 °F /  11.3 °C 29.6in /  1001.7hPa Calm   1mph /  1.6km/h 58% 0in /  0.0mm 0 W/m2
00:54 67.3 °F /  19.6 °C 53.8 °F /  12.1 °C 29.6in /  1001.4hPa Calm   1mph /  1.6km/h 62% 0in /  0.0mm 0 W/m2
00:59 66.6 °F /  19.2 °C 53.6 °F /  12 °C 29.6in /  1001.4hPa Calm   2mph /  3.2km/h 63% 0in /  0.0mm 0 W/m2
01:04 65.8 °F /  18.8 °C 52 °F /  11.1 °C 29.6in /  1001.0hPa Calm   2mph /  3.2km/h 61% 0in /  0.0mm 0 W/m2
01:09 65.7 °F /  18.7 °C 53.2 °F /  11.8 °C 29.6in /  1001.0hPa WSW 0.9mph /  1.4km/h 2mph /  3.2km/h 64% 0in /  0.0mm 0 W/m2
01:14 65.3 °F /  18.5 °C 52.9 °F /  11.6 °C 29.6in /  1000.7hPa ESE 0.9mph /  1.4km/h 3mph /  4.8km/h 64% 0in /  0.0mm 0 W/m2
01:19 65.1 °F /  18.4 °C 52.7 °F /  11.5 °C 29.6in /  1000.7hPa ESE 0.9mph /  1.4km/h 1mph /  1.6km/h 64% 0in /  0.0mm 0 W/m2
01:24 65.1 °F /  18.4 °C 52.7 °F /  11.5 °C 29.6in /  1000.7hPa ESE 0.9mph /  1.4km/h 1mph /  1.6km/h 64% 0in /  0.0mm 0 W/m2
01:29 64.9 °F /  18.3 °C 52.5 °F /  11.4 °C 29.6in /  1000.7hPa Calm     64% 0in /  0.0mm 0 W/m2
01:34 64.8 °F /  18.2 °C 52.7 °F /  11.5 °C 29.6in /  1000.7hPa ESE 0.9mph /  1.4km/h 2mph /  3.2km/h 65% 0in /  0.0mm 0 W/m2
01:39 64.6 °F /  18.1 °C 53.4 °F /  11.9 °C 29.6in /  1001.0hPa Calm   2mph /  3.2km/h 67% 0in /  0.0mm 0 W/m2
01:44 64 °F /  17.8 °C 52.9 °F /  11.6 °C 29.6in /  1001.0hPa Calm   1mph /  1.6km/h 67% 0in /  0.0mm 0 W/m2
01:49 63.9 °F /  17.7 °C 52.7 °F /  11.5 °C 29.6in /  1001.0hPa East 2.9mph /  4.7km/h 4mph /  6.4km/h 67% 0in /  0.0mm 0 W/m2
01:54 64 °F /  17.8 °C 52.9 °F /  11.6 °C 29.6in /  1001.4hPa Calm   1mph /  1.6km/h 67% 0in /  0.0mm 0 W/m2
01:59 64 °F /  17.8 °C 52.5 °F /  11.4 °C 29.6in /  1001.4hPa East 0.9mph /  1.4km/h 4mph /  6.4km/h 66% 0in /  0.0mm 0 W/m2
02:04 64.2 °F /  17.9 °C 53.1 °F /  11.7 °C 29.6in /  1001.0hPa East 0.9mph /  1.4km/h 1mph /  1.6km/h 67% 0in /  0.0mm 0 W/m2
02:09 64 °F /  17.8 °C 53.6 °F /  12 °C 29.6in /  1001.4hPa East 0.9mph /  1.4km/h 4mph /  6.4km/h 69% 0in /  0.0mm 0 W/m2
02:14 63.9 °F /  17.7 °C 54.3 °F /  12.4 °C 29.6in /  1001.0hPa Calm     71% 0in /  0.0mm 0 W/m2
02:19 63.3 °F /  17.4 °C 54.5 °F /  12.5 °C 29.6in /  1001.4hPa Calm   3mph /  4.8km/h 73% 0in /  0.0mm 0 W/m2
02:24 62.8 °F /  17.1 °C 54.7 °F /  12.6 °C 29.6in /  1001.4hPa SSW 0.9mph /  1.4km/h 4mph /  6.4km/h 75% 0in /  0.0mm 0 W/m2
02:29 63.1 °F /  17.3 °C 54.3 °F /  12.4 °C 29.6in /  1001.4hPa North 2.9mph /  4.7km/h 4mph /  6.4km/h 73% 0in /  0.0mm 0 W/m2
02:34 64.2 °F /  17.9 °C 53.4 °F /  11.9 °C 29.6in /  1001.4hPa NNW 0.9mph /  1.4km/h 4mph /  6.4km/h 68% 0in /  0.0mm 0 W/m2
02:39 65.1 °F /  18.4 °C 53.4 °F /  11.9 °C 29.6in /  1001.0hPa West 2mph /  3.2km/h 4mph /  6.4km/h 66% 0in /  0.0mm 0 W/m2
02:44 65.3 °F /  18.5 °C 54.5 °F /  12.5 °C 29.6in /  1001.0hPa Calm   2mph /  3.2km/h 68% 0in /  0.0mm 0 W/m2
02:49 64.9 °F /  18.3 °C 54.1 °F /  12.3 °C 29.6in /  1001.0hPa NNW 2.9mph /  4.7km/h 3mph /  4.8km/h 68% 0in /  0.0mm 0 W/m2
02:54 64.9 °F /  18.3 °C 52.9 °F /  11.6 °C 29.6in /  1000.7hPa SE 0.9mph /  1.4km/h 5mph /  8km/h 65% 0in /  0.0mm 0 W/m2
02:59 65.7 °F /  18.7 °C 52.3 °F /  11.3 °C 29.6in /  1000.7hPa North 0.9mph /  1.4km/h 8mph /  12.9km/h 62% 0in /  0.0mm 0 W/m2
03:04 66.4 °F /  19.1 °C 52.5 °F /  11.4 °C 29.6in /  1000.7hPa ENE 2mph /  3.2km/h 3mph /  4.8km/h 61% 0in /  0.0mm 0 W/m2
03:09 66.9 °F /  19.4 °C 52.2 °F /  11.2 °C 29.6in /  1000.7hPa NE 2.9mph /  4.7km/h 4mph /  6.4km/h 59% 0in /  0.0mm 0 W/m2
03:14 67.5 °F /  19.7 °C 51.6 °F /  10.9 °C 29.6in /  1000.7hPa NNW 2mph /  3.2km/h 4mph /  6.4km/h 57% 0in /  0.0mm 0 W/m2
03:19 67.8 °F /  19.9 °C 51.6 °F /  10.9 °C 29.6in /  1000.7hPa NE 0.9mph /  1.4km/h 5mph /  8km/h 56% 0in /  0.0mm 0 W/m2
03:24 68.2 °F /  20.1 °C 51.4 °F /  10.8 °C 29.6in /  1000.7hPa NW 0.9mph /  1.4km/h 8mph /  12.9km/h 55% 0in /  0.0mm 0 W/m2
03:29 68.5 °F /  20.3 °C 51.8 °F /  11 °C 29.6in /  1000.7hPa NW 2mph /  3.2km/h 5mph /  8km/h 55% 0in /  0.0mm 0 W/m2
03:34 68.5 °F /  20.3 °C 51.3 °F /  10.7 °C 29.6in /  1000.7hPa NE 0.9mph /  1.4km/h 2mph /  3.2km/h 54% 0in /  0.0mm 0 W/m2
03:39 68.7 °F /  20.4 °C 51.4 °F /  10.8 °C 29.6in /  1000.7hPa NNW 2.9mph /  4.7km/h 7mph /  11.3km/h 54% 0in /  0.0mm 0 W/m2
03:45 68.7 °F /  20.4 °C 51.4 °F /  10.8 °C 29.6in /  1001.0hPa North 2mph /  3.2km/h 4mph /  6.4km/h 54% 0in /  0.0mm 0 W/m2
03:50 68.7 °F /  20.4 °C 50.9 °F /  10.5 °C 29.6in /  1001.0hPa NNW 4mph /  6.4km/h 5mph /  8km/h 53% 0in /  0.0mm 0 W/m2
03:55 68.7 °F /  20.4 °C 50.9 °F /  10.5 °C 29.6in /  1001.4hPa NNW 4.9mph /  7.9km/h 8mph /  12.9km/h 53% 0in /  0.0mm 0 W/m2
04:00 68.7 °F /  20.4 °C 50.9 °F /  10.5 °C 29.6in /  1001.4hPa SW 2mph /  3.2km/h 5mph /  8km/h 53% 0in /  0.0mm 0 W/m2
04:05 68.7 °F /  20.4 °C 51.4 °F /  10.8 °C 29.6in /  1001.4hPa NNW 0.9mph /  1.4km/h 3mph /  4.8km/h 54% 0in /  0.0mm 0 W/m2
04:10 68.5 °F /  20.3 °C 51.3 °F /  10.7 °C 29.6in /  1001.4hPa WNW 2.9mph /  4.7km/h 6mph /  9.7km/h 54% 0in /  0.0mm 0 W/m2
04:15 68.4 °F /  20.2 °C 51.6 °F /  10.9 °C 29.6in /  1001.4hPa North 2.9mph /  4.7km/h 9mph /  14.5km/h 55% 0in /  0.0mm 0 W/m2
04:20 68.2 °F /  20.1 °C 51.8 °F /  11 °C 29.6in /  1001.4hPa ENE 2.9mph /  4.7km/h 5mph /  8km/h 56% 0in /  0.0mm 0 W/m2
04:25 67.8 °F /  19.9 °C 51.6 °F /  10.9 °C 29.6in /  1001.4hPa NNW 0.9mph /  1.4km/h 9mph /  14.5km/h 56% 0in /  0.0mm 0 W/m2
04:30 67.6 °F /  19.8 °C 51.8 °F /  11 °C 29.6in /  1001.4hPa West 2.9mph /  4.7km/h 6mph /  9.7km/h 57% 0in /  0.0mm 0 W/m2
04:35 67.5 °F /  19.7 °C 51.6 °F /  10.9 °C 29.6in /  1001.7hPa North 0.9mph /  1.4km/h 3mph /  4.8km/h 57% 0in /  0.0mm 0 W/m2
04:40 67.1 °F /  19.5 °C 52.3 °F /  11.3 °C 29.6in /  1001.7hPa NNE 2mph /  3.2km/h 5mph /  8km/h 59% 0in /  0.0mm 0 W/m2
04:45 66.9 °F /  19.4 °C 52.5 °F /  11.4 °C 29.6in /  1001.7hPa NNW 4mph /  6.4km/h 4mph /  6.4km/h 60% 0in /  0.0mm 0 W/m2
04:50 66.4 °F /  19.1 °C 52.5 °F /  11.4 °C 29.6in /  1002.0hPa Calm   6mph /  9.7km/h 61% 0in /  0.0mm 0 W/m2
04:55 66 °F /  18.9 °C 52.7 °F /  11.5 °C 29.6in /  1002.0hPa West 0.9mph /  1.4km/h 4mph /  6.4km/h 62% 0in /  0.0mm 0 W/m2
05:00 65.8 °F /  18.8 °C 52.9 °F /  11.6 °C 29.6in /  1002.4hPa Calm   6mph /  9.7km/h 63% 0in /  0.0mm 0 W/m2
05:05 65.7 °F /  18.7 °C 53.6 °F /  12 °C 29.6in /  1002.4hPa NW 2.9mph /  4.7km/h 4mph /  6.4km/h 65% 0in /  0.0mm 0 W/m2
05:10 65.1 °F /  18.4 °C 54 °F /  12.2 °C 29.6in /  1002.7hPa NW 2.9mph /  4.7km/h 6mph /  9.7km/h 67% 0in /  0.0mm 0 W/m2
05:15 64.6 °F /  18.1 °C 53.8 °F /  12.1 °C 29.6in /  1002.7hPa WNW 6.9mph /  11.1km/h 15mph /  24.1km/h 68% 0in /  0.0mm 0 W/m2
05:20 63.3 °F /  17.4 °C 54.1 °F /  12.3 °C 29.6in /  1002.4hPa NW 4mph /  6.4km/h 12mph /  19.3km/h 72% 0.01in /  0.2mm 0 W/m2
05:25 62.8 °F /  17.1 °C 54.3 °F /  12.4 °C 29.6in /  1002.4hPa NNW 2mph /  3.2km/h 4mph /  6.4km/h 74% 0.01in /  0.2mm 0 W/m2
05:30 62.1 °F /  16.7 °C 54.3 °F /  12.4 °C 29.6in /  1002.4hPa Calm   12mph /  19.3km/h 76% 0.01in /  0.2mm 0 W/m2
05:35 61.7 °F /  16.5 °C 54.5 °F /  12.5 °C 29.6in /  1002.7hPa NNW 2mph /  3.2km/h 2mph /  3.2km/h 77% 0.01in /  0.2mm 0 W/m2
05:40 61.3 °F /  16.3 °C 54.5 °F /  12.5 °C 29.6in /  1002.7hPa Calm   5mph /  8km/h 78% 0.01in /  0.2mm 0 W/m2
05:45 61.2 °F /  16.2 °C 54.3 °F /  12.4 °C 29.6in /  1002.7hPa NNE 2mph /  3.2km/h 4mph /  6.4km/h 78% 0.01in /  0.2mm 0 W/m2
05:50 61.2 °F /  16.2 °C 54.3 °F /  12.4 °C 29.6in /  1002.7hPa ENE 2.9mph /  4.7km/h 4mph /  6.4km/h 78% 0.01in /  0.2mm 0 W/m2
05:55 61.2 °F /  16.2 °C 54.7 °F /  12.6 °C 29.6in /  1002.7hPa ENE 2mph /  3.2km/h 4mph /  6.4km/h 79% 0.01in /  0.2mm 0 W/m2
06:00 61 °F /  16.1 °C 54.5 °F /  12.5 °C 29.6in /  1002.7hPa NNE 0.9mph /  1.4km/h 3mph /  4.8km/h 79% 0.01in /  0.2mm 0 W/m2
06:05 60.8 °F /  16 °C 54.3 °F /  12.4 °C 29.6in /  1003.0hPa Calm   1mph /  1.6km/h 79% 0.01in /  0.2mm 0 W/m2
06:10 60.8 °F /  16 °C 54.3 °F /  12.4 °C 29.6in /  1003.0hPa Calm   3mph /  4.8km/h 79% 0.01in /  0.2mm 0 W/m2
06:15 60.6 °F /  15.9 °C 54.1 °F /  12.3 °C 29.6in /  1003.0hPa South 2mph /  3.2km/h 3mph /  4.8km/h 79% 0.01in /  0.2mm 0 W/m2
06:20 60.6 °F /  15.9 °C 54.1 °F /  12.3 °C 29.6in /  1003.0hPa SE 2.9mph /  4.7km/h 3mph /  4.8km/h 79% 0in /  0.0mm 0 W/m2
06:25 60.6 °F /  15.9 °C 54.1 °F /  12.3 °C 29.6in /  1003.0hPa North 2mph /  3.2km/h 2mph /  3.2km/h 79% 0in /  0.0mm 5 W/m2
06:30 60.4 °F /  15.8 °C 54.3 °F /  12.4 °C 29.6in /  1003.4hPa North 0.9mph /  1.4km/h 2mph /  3.2km/h 80% 0in /  0.0mm 0 W/m2
06:35 60.4 °F /  15.8 °C 54.5 °F /  12.5 °C 29.6in /  1003.4hPa ENE 0.9mph /  1.4km/h 3mph /  4.8km/h 81% 0in /  0.0mm 0 W/m2
06:40 60.3 °F /  15.7 °C 54.1 °F /  12.3 °C 29.6in /  1003.0hPa Calm   2mph /  3.2km/h 80% 0in /  0.0mm 5 W/m2
06:45 60.3 °F /  15.7 °C 54.3 °F /  12.4 °C 29.6in /  1003.0hPa ENE 2.9mph /  4.7km/h 4mph /  6.4km/h 81% 0in /  0.0mm 5 W/m2
06:50 60.3 °F /  15.7 °C 54.3 °F /  12.4 °C 29.6in /  1003.0hPa East 0.9mph /  1.4km/h 1mph /  1.6km/h 81% 0in /  0.0mm 9 W/m2
06:55 60.1 °F /  15.6 °C 54.3 °F /  12.4 °C 29.6in /  1003.4hPa East 4mph /  6.4km/h 4mph /  6.4km/h 81% 0in /  0.0mm 9 W/m2
07:00 60.1 °F /  15.6 °C 54.3 °F /  12.4 °C 29.6in /  1003.4hPa ENE 0.9mph /  1.4km/h 5mph /  8km/h 81% 0in /  0.0mm 11 W/m2
07:05 60.1 °F /  15.6 °C 54.3 °F /  12.4 °C 29.6in /  1003.0hPa Calm   3mph /  4.8km/h 81% 0in /  0.0mm 21 W/m2
07:10 60.1 °F /  15.6 °C 54.3 °F /  12.4 °C 29.6in /  1003.4hPa NE 0.9mph /  1.4km/h 1mph /  1.6km/h 81% 0in /  0.0mm 37 W/m2
07:15 60.1 °F /  15.6 °C 54.5 °F /  12.5 °C 29.6in /  1003.7hPa Calm   1mph /  1.6km/h 82% 0in /  0.0mm 51 W/m2
07:20 60.1 °F /  15.6 °C 54.5 °F /  12.5 °C 29.6in /  1003.7hPa Calm   1mph /  1.6km/h 82% 0in /  0.0mm 53 W/m2
07:25 60.1 °F /  15.6 °C 54.3 °F /  12.4 °C 29.7in /  1004.1hPa Calm   1mph /  1.6km/h 81% 0in /  0.0mm 47 W/m2
07:30 60.1 °F /  15.6 °C 54.5 °F /  12.5 °C 29.6in /  1003.7hPa NNW 0.9mph /  1.4km/h 2mph /  3.2km/h 82% 0in /  0.0mm 69 W/m2
07:35 60.3 °F /  15.7 °C 54.3 °F /  12.4 °C 29.6in /  1003.7hPa Calm   2mph /  3.2km/h 81% 0in /  0.0mm 95 W/m2
07:40 60.3 °F /  15.7 °C 54.3 °F /  12.4 °C 29.7in /  1004.1hPa Calm   1mph /  1.6km/h 81% 0in /  0.0mm 72 W/m2
07:45 60.4 °F /  15.8 °C 54.3 °F /  12.4 °C 29.7in /  1004.1hPa Calm   2mph /  3.2km/h 80% 0in /  0.0mm 83 W/m2
07:50 60.4 °F /  15.8 °C 54.3 °F /  12.4 °C 29.7in /  1004.4hPa Calm   2mph /  3.2km/h 80% 0in /  0.0mm 70 W/m2
07:55 60.6 °F /  15.9 °C 54.5 °F /  12.5 °C 29.7in /  1004.1hPa NNE 2mph /  3.2km/h 3mph /  4.8km/h 80% 0in /  0.0mm 60 W/m2
08:01 60.6 °F /  15.9 °C 54.1 °F /  12.3 °C 29.6in /  1003.7hPa WNW 0.9mph /  1.4km/h 3mph /  4.8km/h 79% 0in /  0.0mm 86 W/m2
08:06 60.8 °F /  16 °C 54 °F /  12.2 °C 29.7in /  1004.1hPa East 2.9mph /  4.7km/h 3mph /  4.8km/h 78% 0in /  0.0mm 49 W/m2
08:11 60.8 °F /  16 °C 54 °F /  12.2 °C 29.7in /  1004.1hPa Calm   2mph /  3.2km/h 78% 0in /  0.0mm 49 W/m2
08:16 60.8 °F /  16 °C 54 °F /  12.2 °C 29.7in /  1004.1hPa Calm   3mph /  4.8km/h 78% 0in /  0.0mm 46 W/m2
08:21 60.6 °F /  15.9 °C 54.1 °F /  12.3 °C 29.7in /  1004.4hPa NNW 2.9mph /  4.7km/h 6mph /  9.7km/h 79% 0in /  0.0mm 67 W/m2
08:26 60.6 °F /  15.9 °C 54.1 °F /  12.3 °C 29.7in /  1004.7hPa NE 2mph /  3.2km/h 3mph /  4.8km/h 79% 0in /  0.0mm 91 W/m2
08:31 60.6 °F /  15.9 °C 54.1 °F /  12.3 °C 29.7in /  1005.1hPa NNE 2mph /  3.2km/h 6mph /  9.7km/h 79% 0in /  0.0mm 90 W/m2
08:36 60.6 °F /  15.9 °C 53.8 °F /  12.1 °C 29.7in /  1005.1hPa NE 2mph /  3.2km/h 4mph /  6.4km/h 78% 0in /  0.0mm 67 W/m2
08:41 60.6 °F /  15.9 °C 54.1 °F /  12.3 °C 29.7in /  1005.1hPa NNW 0.9mph /  1.4km/h 5mph /  8km/h 79% 0in /  0.0mm 118 W/m2
08:46 60.6 °F /  15.9 °C 54.1 °F /  12.3 °C 29.7in /  1005.1hPa NW 0.9mph /  1.4km/h 3mph /  4.8km/h 79% 0in /  0.0mm 111 W/m2
08:51 60.6 °F /  15.9 °C 53.8 °F /  12.1 °C 29.7in /  1005.1hPa West 2mph /  3.2km/h 8mph /  12.9km/h 78% 0in /  0.0mm 102 W/m2
08:56 60.6 °F /  15.9 °C 53.8 °F /  12.1 °C 29.7in /  1005.4hPa NE 0.9mph /  1.4km/h 6mph /  9.7km/h 78% 0in /  0.0mm 171 W/m2
09:01 60.6 °F /  15.9 °C 53.8 °F /  12.1 °C 29.7in /  1005.4hPa Calm   4mph /  6.4km/h 78% 0in /  0.0mm 149 W/m2
09:06 60.6 °F /  15.9 °C 53.8 °F /  12.1 °C 29.7in /  1005.8hPa NW 4.9mph /  7.9km/h 10mph /  16.1km/h 78% 0in /  0.0mm 67 W/m2
09:11 60.4 °F /  15.8 °C 53.2 °F /  11.8 °C 29.7in /  1005.8hPa WNW 4.9mph /  7.9km/h 6mph /  9.7km/h 77% 0in /  0.0mm 79 W/m2
09:16 60.4 °F /  15.8 °C 53.6 °F /  12 °C 29.7in /  1005.8hPa WNW 4.9mph /  7.9km/h 8mph /  12.9km/h 78% 0in /  0.0mm 79 W/m2
09:21 60.3 °F /  15.7 °C 53.8 °F /  12.1 °C 29.7in /  1005.4hPa NNW 2.9mph /  4.7km/h 3mph /  4.8km/h 79% 0in /  0.0mm 142 W/m2
09:26 60.1 °F /  15.6 °C 54 °F /  12.2 °C 29.7in /  1005.4hPa NNE 0.9mph /  1.4km/h 3mph /  4.8km/h 80% 0in /  0.0mm 181 W/m2
09:31 59.9 °F /  15.5 °C 54.1 °F /  12.3 °C 29.7in /  1005.8hPa NE 0.9mph /  1.4km/h 8mph /  12.9km/h 81% 0in /  0.0mm 137 W/m2
09:36 59.7 °F /  15.4 °C 54.1 °F /  12.3 °C 29.7in /  1005.8hPa North 0.9mph /  1.4km/h 3mph /  4.8km/h 82% 0.01in /  0.2mm 121 W/m2
09:41 59.4 °F /  15.2 °C 54.1 °F /  12.3 °C 29.7in /  1006.1hPa Calm   4mph /  6.4km/h 83% 0.01in /  0.2mm 63 W/m2
09:46 59.2 °F /  15.1 °C 54.3 °F /  12.4 °C 29.7in /  1006.1hPa NW 2.9mph /  4.7km/h 5mph /  8km/h 84% 0.01in /  0.2mm 49 W/m2
09:51 59 °F /  15 °C 54.5 °F /  12.5 °C 29.7in /  1006.1hPa Calm   4mph /  6.4km/h 85% 0.01in /  0.2mm 72 W/m2
09:56 58.8 °F /  14.9 °C 54.3 °F /  12.4 °C 29.7in /  1006.1hPa NW 0.9mph /  1.4km/h 5mph /  8km/h 85% 0.01in /  0.2mm 107 W/m2
10:01 58.8 °F /  14.9 °C 54.7 °F /  12.6 °C 29.7in /  1006.1hPa NW 2.9mph /  4.7km/h 3mph /  4.8km/h 86% 0.01in /  0.2mm 102 W/m2
10:06 58.6 °F /  14.8 °C 54.5 °F /  12.5 °C 29.7in /  1006.1hPa NW 0.9mph /  1.4km/h 3mph /  4.8km/h 86% 0.01in /  0.2mm 90 W/m2
10:11 58.6 °F /  14.8 °C 54.5 °F /  12.5 °C 29.7in /  1006.4hPa NNW 2mph /  3.2km/h 2mph /  3.2km/h 86% 0.01in /  0.2mm 104 W/m2
10:16 58.8 °F /  14.9 °C 54.7 °F /  12.6 °C 29.7in /  1006.4hPa WNW 2mph /  3.2km/h 4mph /  6.4km/h 86% 0.01in /  0.2mm 102 W/m2
10:21 58.6 °F /  14.8 °C 54.5 °F /  12.5 °C 29.7in /  1006.4hPa NW 4mph /  6.4km/h 7mph /  11.3km/h 86% 0.01in /  0.2mm 125 W/m2
10:26 58.6 °F /  14.8 °C 54.5 °F /  12.5 °C 29.7in /  1006.4hPa NNW 0.9mph /  1.4km/h 2mph /  3.2km/h 86% 0.01in /  0.2mm 128 W/m2
10:31 58.8 °F /  14.9 °C 55 °F /  12.8 °C 29.7in /  1006.4hPa NW 0.9mph /  1.4km/h 2mph /  3.2km/h 87% 0.01in /  0.2mm 156 W/m2
10:36 58.8 °F /  14.9 °C 54.7 °F /  12.6 °C 29.7in /  1006.8hPa NNW 4mph /  6.4km/h 4mph /  6.4km/h 86% 0in /  0.0mm 153 W/m2
10:41 59 °F /  15 °C 54.9 °F /  12.7 °C 29.7in /  1006.8hPa NNE 0.9mph /  1.4km/h 4mph /  6.4km/h 86% 0in /  0.0mm 135 W/m2
10:46 59 °F /  15 °C 54.5 °F /  12.5 °C 29.7in /  1006.8hPa NNW 2.9mph /  4.7km/h 7mph /  11.3km/h 85% 0in /  0.0mm 84 W/m2
10:51 58.8 °F /  14.9 °C 54.3 °F /  12.4 °C 29.7in /  1006.4hPa NNE 0.9mph /  1.4km/h 3mph /  4.8km/h 85% 0in /  0.0mm 90 W/m2
10:56 58.8 °F /  14.9 °C 54.3 °F /  12.4 °C 29.7in /  1006.8hPa NW 2.9mph /  4.7km/h 3mph /  4.8km/h 85% 0in /  0.0mm 98 W/m2
11:01 58.8 °F /  14.9 °C 54.3 °F /  12.4 °C 29.7in /  1006.8hPa Calm   2mph /  3.2km/h 85% 0in /  0.0mm 77 W/m2
11:06 58.6 °F /  14.8 °C 54.1 °F /  12.3 °C 29.7in /  1007.1hPa NW 0.9mph /  1.4km/h 7mph /  11.3km/h 85% 0in /  0.0mm 37 W/m2
11:11 58.6 °F /  14.8 °C 54.1 °F /  12.3 °C 29.7in /  1007.1hPa NW 2mph /  3.2km/h 3mph /  4.8km/h 85% 0in /  0.0mm 90 W/m2
11:16 58.5 °F /  14.7 °C 54 °F /  12.2 °C 29.7in /  1007.1hPa NNE 2.9mph /  4.7km/h 4mph /  6.4km/h 85% 0in /  0.0mm 56 W/m2
11:21 58.5 °F /  14.7 °C 54 °F /  12.2 °C 29.7in /  1006.8hPa NE 2.9mph /  4.7km/h 5mph /  8km/h 85% 0in /  0.0mm 88 W/m2
11:26 58.5 °F /  14.7 °C 54.3 °F /  12.4 °C 29.7in /  1006.8hPa NNE 0.9mph /  1.4km/h 4mph /  6.4km/h 86% 0in /  0.0mm 135 W/m2
11:32 58.5 °F /  14.7 °C 54.3 °F /  12.4 °C 29.7in /  1006.8hPa NNW 0.9mph /  1.4km/h 2mph /  3.2km/h 86% 0in /  0.0mm 111 W/m2
11:37 58.5 °F /  14.7 °C 54 °F /  12.2 °C 29.7in /  1007.1hPa NNE 0.9mph /  1.4km/h 3mph /  4.8km/h 85% 0in /  0.0mm 98 W/m2
Juneau County Weather
Compliments of Weather Underground - 4 mb